Chapadmalal, Argentina
Current Conditions -  °F | °C
As of 3:00 PM on Friday 28 Nov 2014 (Local Time) from SAZM Reporting Station
Clear Clear  
Wind Chill: 84°   Ceiling: Unl
Heat Index: 84°   Visibility: 6mi
Dew Point: 55°   Wind: 18mph
Humidity: 37%   Direction: 320°NW
Pressure: 29.88"   Gusts: NA
Location:  38.11°S, 57.98°W
Report Text: SAZM 281800Z 32016KT CAVOK 29/13 Q1012
Loading
Personal Weather Stations






























Interactive Weather Map New forecast layout! Learn more

10-Day Weather Forecast

Advertisements
Track Severe Weather on mobile